Albacora — D3P5420 — position and weather

sailwx.info

Track history (hours):
 
Tides and Currents Weather Stations Pressure Air Temp Water Temp Dewpoint Dewpoint Depression Visibility Wind Speed Wind Dir Waves Ship Positions

Albacora

Last reported at 2018-Jan-08 23:36 UTC. Time now 2018-May-21 01:21 UTC.
Position N 38°43' W 009°56'.
Warning: this ship's position is months out of date.

Length 27 m; draft 4 m.

Type: Fishing. MMSI: 603100305.

Date/timePositionNaut miles runAvg speedWind from/ knotsBaromVisibWave heightAir tempDewpointWater temp
2018-Jan-08 23:36N 38°43' W 009°56'5 9.6
2018-Jan-08 23:06N 38°47' W 009°53'4 9.7
2018-Jan-08 22:40N 38°51' W 009°50'2 9.7
2018-Jan-08 22:29N 38°52' W 009°48'5 9.7
2018-Jan-08 22:00N 38°56' W 009°45'5 9.7
2018-Jan-08 21:30N 38°60' W 009°41'5 9.5
2018-Jan-08 21:00N 39°04' W 009°38'5 9.3
2018-Jan-08 20:30N 39°08' W 009°34'5 9.4
2018-Jan-08 20:00N 39°11' W 009°31'5 9.3
2018-Jan-08 19:30N 39°15' W 009°27'  
2018-Jan-03 17:17N 39°21' W 009°22'0 0.0
2018-Jan-03 16:59N 39°21' W 009°22'0 0.0
2018-Jan-03 16:30N 39°21' W 009°22'0 0.0
2018-Jan-03 14:56N 39°21' W 009°22'  
Track history (hours):
 
Tides and Currents Weather Stations Pressure Air Temp Water Temp Dewpoint Dewpoint Depression Visibility Wind Speed Wind Dir Waves Ship Positions

Albacora

Last reported at 2018-Jan-08 23:36 UTC. Time now 2018-May-21 01:21 UTC.
Position N 38°43' W 009°56'.
Warning: this ship's position is months out of date.

Length 27 m; draft 4 m.

Type: Fishing. MMSI: 603100305.

Date/timePositionNaut miles runAvg speedWind from/ knotsBaromVisibWave heightAir tempDewpointWater temp
2018-Jan-08 23:36N 38°43' W 009°56'5 9.6
2018-Jan-08 23:06N 38°47' W 009°53'4 9.7
2018-Jan-08 22:40N 38°51' W 009°50'2 9.7
2018-Jan-08 22:29N 38°52' W 009°48'5 9.7
2018-Jan-08 22:00N 38°56' W 009°45'5 9.7
2018-Jan-08 21:30N 38°60' W 009°41'5 9.5
2018-Jan-08 21:00N 39°04' W 009°38'5 9.3
2018-Jan-08 20:30N 39°08' W 009°34'5 9.4
2018-Jan-08 20:00N 39°11' W 009°31'5 9.3
2018-Jan-08 19:30N 39°15' W 009°27'  
2018-Jan-03 17:17N 39°21' W 009°22'0 0.0
2018-Jan-03 16:59N 39°21' W 009°22'0 0.0
2018-Jan-03 16:30N 39°21' W 009°22'0 0.0
2018-Jan-03 14:56N 39°21' W 009°22'  

Dump ship's entire track history